This is the latest recevied weather packets stored in our database for station/object IZ6SAC-13. If no packets are shown the sender has not sent any weather packets the latest 1 day(s).
| Time | Temp. | Humidity | Pressure | Rain* | Wind** | Luminosity | Snow |
|---|---|---|---|---|---|---|---|
| 1778012124 | 16.67° C | 71% | 1014.5 hPa | 0 mm | 0.45 m/s, 224° | - | - |
| 1778010329 | 17.22° C | 74% | 1014.5 hPa | 0 mm | 0.45 m/s, 257° | - | - |
| 1778008532 | 17.22° C | 71% | 1014.1 hPa | 0 mm | 0.45 m/s, 227° | - | - |
| 1778006735 | 17.22° C | 71% | 1013.9 hPa | 0 mm | 0.89 m/s, 219° | - | - |
| 1778004921 | 17.78° C | 70% | 1013.7 hPa | 0 mm | 0.89 m/s, 219° | - | - |
| 1778003125 | 17.78° C | 69% | 1013.6 hPa | 0 mm | 0.89 m/s, 203° | - | - |
| 1778001330 | 18.89° C | 66% | 1013.6 hPa | 0 mm | 0.89 m/s, 212° | - | - |
| 1777999547 | 20.56° C | 60% | 1013.6 hPa | 0 mm | 1.79 m/s, 195° | - | - |
| 1777997717 | 21.67° C | 58% | 1013.9 hPa | 0 mm | 0.89 m/s, 212° | - | - |
| 1777995922 | 18.89° C | 67% | 1014 hPa | 0 mm | 1.34 m/s, 222° | - | - |
| 1777994127 | 18.89° C | 66% | 1014 hPa | 0 mm | 1.34 m/s, 216° | - | - |
| 1777992332 | 20° C | 64% | 1014.1 hPa | 0 mm | 1.34 m/s, 218° | - | - |
| 1777990517 | 19.44° C | 64% | 1014.1 hPa | 0 mm | 1.79 m/s, 211° | - | - |
| 1777988720 | 19.44° C | 64% | 1014.2 hPa | 0 mm | 1.79 m/s, 223° | - | - |
| 1777986921 | 18.89° C | 66% | 1014.3 hPa | 0 mm | 2.24 m/s, 218° | - | - |
| 1777985122 | 21.11° C | 60% | 1014.5 hPa | 0 mm | 1.79 m/s, 225° | - | - |
| 1777983328 | 21.67° C | 59% | 1014.7 hPa | 0 mm | 2.24 m/s, 224° | - | - |
| 1777981533 | 20° C | 65% | 1014.7 hPa | 0 mm | 1.79 m/s, 221° | - | - |
| 1777979719 | 21.11° C | 62% | 1014.7 hPa | 0 mm | 1.79 m/s, 220° | - | - |
| 1777977924 | 20° C | 64% | 1015 hPa | 0 mm | 1.34 m/s, 205° | - | - |
| 1777976168 | 18.33° C | 69% | 1015.1 hPa | 0 mm | 1.79 m/s, 217° | - | - |
| 1777974620 | 18.33° C | 71% | 1015.2 hPa | 0 mm | 0.45 m/s, 191° | - | - |
| 1777972825 | 15.56° C | 82% | 1015.3 hPa | 0 mm | 0 m/s | - | - |
| 1777971030 | 14.44° C | 85% | 1015.3 hPa | 0 mm | 0 m/s | - | - |
| 1777967419 | 13.89° C | 85% | 1015.1 hPa | 1.52 mm | 0 m/s | - | - |
* Rain latest hour (hover to see other rain measurements)
** Current wind speed in m/s (hover to see current wind gust speed)